Time;durP1;ratioP1;P1;durP2;ratioP2;P2;SDS_P1;SDS_P2;PMS_P1;PMS_P2;Temp;Humidity;BMP_temperature;BMP_pressure;BME280_temperature;BME280_humidity;BME280_pressure;Samples;Min_cycle;Max_cycle;Signal;HPM_P1;HPM_P2
2021/10/31 00:00:37;;;;;;;;;;;;;;;;;;6041414;23;19945;-89
2021/10/31 00:03:05;;;;;;;;;;;;;;;;;;6042069;23;19929;-88
2021/10/31 00:05:34;;;;;;;;;;;;;;;;;;6042334;23;19929;-90
2021/10/31 00:08:02;;;;;;;;;;;;;;;;;;6064780;23;20261;-88
2021/10/31 00:10:32;;;;;;;;;;;;;;;;;;6042090;23;19925;-89
2021/10/31 00:13:01;;;;;;;;;;;;;;;;;;6066375;23;19926;-88
2021/10/31 00:15:29;;;;;;;;;;;;;;;;;;6042203;23;19925;-89
2021/10/31 00:17:59;;;;;;;;;;;;;;;;;;6065456;23;19928;-88
2021/10/31 00:20:27;;;;;;;;;;;;;;;;;;6040372;23;20262;-86
2021/10/31 00:22:55;;;;;;;;;;;;;;;;;;6039764;23;20377;-88
2021/10/31 00:25:23;;;;;;;;;;;;;;;;;;6041708;23;19922;-89
2021/10/31 00:27:52;;;;;;;;;;;;;;;;;;6041819;23;19929;-88
2021/10/31 00:30:20;;;;;;;;;;;;;;;;;;6041126;23;20282;-88
2021/10/31 00:32:48;;;;;;;;;;;;;;;;;;6064994;23;19926;-89
2021/10/31 00:35:18;;;;;;;;;;;;;;;;;;6041552;23;20266;-88
2021/10/31 00:37:46;;;;;;;;;;;;;;;;;;6039917;23;19944;-88
2021/10/31 00:40:14;;;;;;;;;;;;;;;;;;6040753;23;19933;-88
2021/10/31 00:42:42;;;;;;;;;;;;;;;;;;6041696;23;19922;-90
2021/10/31 00:45:11;;;;;;;;;;;;;;;;;;6041909;23;20355;-90
2021/10/31 00:47:40;;;;;;;;;;;;;;;;;;6042360;23;19922;-88
2021/10/31 00:50:09;;;;;;;;;;;;;;;;;;6040968;23;19925;-90
2021/10/31 00:52:39;;;;;;;;;;;;;;;;;;6066473;23;19933;-89
2021/10/31 00:55:07;;;;;;;;;;;;;;;;;;6040862;23;19929;-89
2021/10/31 00:57:36;;;;;;;;;;;;;;;;;;6083602;23;19917;-89
2021/10/31 01:00:05;;;;;;;;;;;;;;;;;;6067233;23;19913;-87
2021/10/31 01:02:33;;;;;;;;;;;;;;;;;;6068832;23;19921;-87
2021/10/31 01:05:02;;;;;;;;;;;;;;;;;;6064720;23;19976;-88
2021/10/31 01:07:35;;;;;;;;;;;;;;;;;;6041759;23;19922;-88
2021/10/31 01:10:07;;;;;;;;;;;;;;;;;;6039339;23;20144;-87
2021/10/31 01:12:39;;;;;;;;;;;;;;;;;;6074683;23;19925;-88
2021/10/31 01:15:09;;;;;;;;;;;;;;;;;;6041394;23;19933;-88
2021/10/31 01:17:41;;;;;;;;;;;;;;;;;;6074131;23;20262;-87
2021/10/31 01:20:14;;;;;;;;;;;;;;;;;;6073708;23;19921;-90
2021/10/31 01:23:02;;;;;;;;;;;;;;;;;;6041883;23;19922;-88
2021/10/31 01:25:55;;;;;;;;;;;;;;;;;;6039959;23;19925;-86
2021/10/31 01:28:28;;;;;;;;;;;;;;;;;;6007371;23;19929;-86
2021/10/31 01:30:59;;;;;;;;;;;;;;;;;;6040160;23;19922;-87
2021/10/31 01:33:31;;;;;;;;;;;;;;;;;;6041381;23;19922;-86
2021/10/31 01:36:01;;;;;;;;;;;;;;;;;;6040759;23;19928;-88
2021/10/31 01:38:34;;;;;;;;;;;;;;;;;;6041417;23;19926;-89
2021/10/31 01:41:03;;;;;;;;;;;;;;;;;;6038817;23;20267;-88
2021/10/31 01:43:35;;;;;;;;;;;;;;;;;;6041474;23;19922;-88
2021/10/31 01:46:07;;;;;;;;;;;;;;;;;;6041676;23;19922;-90
2021/10/31 01:48:37;;;;;;;;;;;;;;;;;;6040946;23;19941;-88
2021/10/31 01:51:07;;;;;;;;;;;;;;;;;;6064646;23;19936;-88
2021/10/31 01:53:37;;;;;;;;;;;;;;;;;;6065278;23;20351;-87
2021/10/31 01:56:07;;;;;;;;;;;;;;;;;;6039636;23;20278;-86
2021/10/31 01:58:38;;;;;;;;;;;;;;;;;;6040531;23;19921;-89
2021/10/31 02:01:06;;;;;;;;;;;;;;;;;;6040352;23;19921;-88
2021/10/31 02:03:37;;;;;;;;;;;;;;;;;;6041614;23;19940;-89
2021/10/31 02:06:05;;;;;;;;;;;;;;;;;;6065661;23;20117;-86
2021/10/31 02:08:34;;;;;;;;;;;;;;;;;;6065428;23;19929;-87
2021/10/31 02:11:02;;;;;;;;;;;;;;;;;;6062578;23;19922;-89
2021/10/31 02:13:30;;;;;;;;;;;;;;;;;;6039921;23;19922;-89
2021/10/31 02:16:00;;;;;;;;;;;;;;;;;;6064793;23;19925;-90
2021/10/31 02:18:29;;;;;;;;;;;;;;;;;;6040709;23;20266;-87
2021/10/31 02:20:58;;;;;;;;;;;;;;;;;;6039299;23;19933;-89
2021/10/31 02:23:28;;;;;;;;;;;;;;;;;;6040838;23;20262;-90
2021/10/31 02:25:57;;;;;;;;;;;;;;;;;;6040744;23;20373;-89
2021/10/31 02:28:26;;;;;;;;;;;;;;;;;;6039323;23;19921;-89
2021/10/31 02:30:54;;;;;;;;;;;;;;;;;;6039830;23;20263;-89
2021/10/31 02:33:22;;;;;;;;;;;;;;;;;;6063759;23;19929;-89
2021/10/31 02:35:51;;;;;;;;;;;;;;;;;;6041087;23;19922;-86
2021/10/31 02:38:19;;;;;;;;;;;;;;;;;;6040594;23;19922;-91
2021/10/31 02:40:49;;;;;;;;;;;;;;;;;;6039954;23;19922;-91
2021/10/31 02:43:17;;;;;;;;;;;;;;;;;;6064292;23;19926;-90
2021/10/31 02:45:45;;;;;;;;;;;;;;;;;;6041135;23;19922;-91
2021/10/31 02:48:14;;;;;;;;;;;;;;;;;;6041128;23;19925;-91
2021/10/31 02:50:43;;;;;;;;;;;;;;;;;;6042409;23;20366;-90
2021/10/31 02:53:13;;;;;;;;;;;;;;;;;;6043256;23;19940;-90
2021/10/31 02:55:45;;;;;;;;;;;;;;;;;;6041986;23;20267;-90
2021/10/31 02:58:17;;;;;;;;;;;;;;;;;;6041007;23;20362;-90
2021/10/31 03:00:45;;;;;;;;;;;;;;;;;;6038899;23;19922;-90
2021/10/31 03:03:14;;;;;;;;;;;;;;;;;;6041204;23;19922;-91
2021/10/31 03:05:46;;;;;;;;;;;;;;;;;;6040957;23;19926;-91
2021/10/31 03:08:15;;;;;;;;;;;;;;;;;;6042286;23;19925;-91
2021/10/31 03:10:48;;;;;;;;;;;;;;;;;;6064080;23;20259;-91
2021/10/31 03:13:18;;;;;;;;;;;;;;;;;;6041687;23;19922;-90
2021/10/31 03:15:46;;;;;;;;;;;;;;;;;;6064259;23;19928;-91
2021/10/31 03:18:14;;;;;;;;;;;;;;;;;;6064819;23;19909;-91
2021/10/31 03:20:42;;;;;;;;;;;;;;;;;;6090397;23;19961;-90
2021/10/31 03:23:11;;;;;;;;;;;;;;;;;;6065233;23;19925;-86
2021/10/31 03:25:39;;;;;;;;;;;;;;;;;;6066493;23;20343;-88
2021/10/31 03:28:07;;;;;;;;;;;;;;;;;;6066652;23;20232;-89
2021/10/31 03:30:37;;;;;;;;;;;;;;;;;;6040751;23;19925;-91
2021/10/31 03:33:05;;;;;;;;;;;;;;;;;;6066889;23;19922;-89
2021/10/31 03:35:33;;;;;;;;;;;;;;;;;;6042487;23;19921;-90
2021/10/31 03:38:02;;;;;;;;;;;;;;;;;;6042973;23;19922;-90
2021/10/31 03:40:30;;;;;;;;;;;;;;;;;;6052861;23;19922;-89
2021/10/31 03:42:58;;;;;;;;;;;;;;;;;;6077477;23;19928;-89
2021/10/31 03:45:26;;;;;;;;;;;;;;;;;;6066649;23;19945;-89
2021/10/31 03:47:56;;;;;;;;;;;;;;;;;;6041219;23;19930;-90
2021/10/31 03:50:24;;;;;;;;;;;;;;;;;;6066283;23;19921;-91
2021/10/31 03:52:55;;;;;;;;;;;;;;;;;;6091096;23;19929;-90
2021/10/31 03:55:24;;;;;;;;;;;;;;;;;;6041794;23;19922;-91
2021/10/31 03:57:52;;;;;;;;;;;;;;;;;;6065355;23;19922;-89
2021/10/31 04:00:20;;;;;;;;;;;;;;;;;;6041642;23;19922;-90
2021/10/31 04:02:48;;;;;;;;;;;;;;;;;;6042797;23;19925;-90
2021/10/31 04:05:18;;;;;;;;;;;;;;;;;;6042591;23;19922;-89
2021/10/31 04:07:48;;;;;;;;;;;;;;;;;;6090645;23;19925;-90
2021/10/31 04:10:17;;;;;;;;;;;;;;;;;;6065991;23;19932;-89
2021/10/31 04:12:49;;;;;;;;;;;;;;;;;;6042411;23;19928;-89
2021/10/31 04:15:18;;;;;;;;;;;;;;;;;;6042278;23;20347;-89
2021/10/31 04:17:46;;;;;;;;;;;;;;;;;;6067138;23;19926;-89
2021/10/31 04:20:14;;;;;;;;;;;;;;;;;;6065843;23;19922;-90
2021/10/31 04:22:45;;;;;;;;;;;;;;;;;;6042532;23;20374;-90
2021/10/31 04:25:13;;;;;;;;;;;;;;;;;;6043256;23;20163;-90
2021/10/31 04:27:41;;;;;;;;;;;;;;;;;;6067863;23;19922;-91
2021/10/31 04:30:12;;;;;;;;;;;;;;;;;;6044268;23;19921;-88
2021/10/31 04:32:40;;;;;;;;;;;;;;;;;;6042071;23;19932;-90
2021/10/31 04:35:09;;;;;;;;;;;;;;;;;;6041016;23;19979;-89
2021/10/31 04:37:39;;;;;;;;;;;;;;;;;;6042624;23;19926;-88
2021/10/31 04:40:11;;;;;;;;;;;;;;;;;;6066523;23;19922;-90
2021/10/31 04:42:39;;;;;;;;;;;;;;;;;;6042282;23;19928;-89
2021/10/31 04:45:08;;;;;;;;;;;;;;;;;;6090201;23;19921;-89
2021/10/31 04:47:37;;;;;;;;;;;;;;;;;;6065948;23;19926;-89
2021/10/31 04:50:05;;;;;;;;;;;;;;;;;;6041074;23;19922;-88
2021/10/31 04:52:43;;;;;;;;;;;;;;;;;;6040507;23;19926;-91
2021/10/31 04:55:13;;;;;;;;;;;;;;;;;;6041960;23;19930;-90
2021/10/31 04:57:41;;;;;;;;;;;;;;;;;;6041643;23;20250;-87
2021/10/31 05:00:10;;;;;;;;;;;;;;;;;;6065727;23;19932;-89
2021/10/31 05:02:38;;;;;;;;;;;;;;;;;;6065471;23;19921;-88
2021/10/31 05:05:07;;;;;;;;;;;;;;;;;;6090247;23;20394;-89
2021/10/31 05:07:36;;;;;;;;;;;;;;;;;;6066152;23;19928;-90
2021/10/31 05:10:04;;;;;;;;;;;;;;;;;;6040640;23;19922;-89
2021/10/31 05:12:34;;;;;;;;;;;;;;;;;;6041261;23;19922;-90
2021/10/31 05:15:02;;;;;;;;;;;;;;;;;;6065933;23;19922;-89
2021/10/31 05:17:32;;;;;;;;;;;;;;;;;;6065628;23;20357;-87
2021/10/31 05:20:00;;;;;;;;;;;;;;;;;;6041016;23;19928;-91
2021/10/31 05:22:29;;;;;;;;;;;;;;;;;;6065773;23;20255;-89
2021/10/31 05:24:57;;;;;;;;;;;;;;;;;;6066060;23;20180;-90
2021/10/31 05:27:25;;;;;;;;;;;;;;;;;;6065629;23;19926;-90
2021/10/31 05:29:55;;;;;;;;;;;;;;;;;;6063868;23;19921;-90
2021/10/31 05:32:24;;;;;;;;;;;;;;;;;;6064401;23;19930;-90
2021/10/31 05:34:52;;;;;;;;;;;;;;;;;;6064962;23;19929;-91
2021/10/31 05:37:21;;;;;;;;;;;;;;;;;;6082239;23;19920;-91
2021/10/31 05:39:49;;;;;;;;;;;;;;;;;;6092827;23;20047;-90
2021/10/31 05:42:17;;;;;;;;;;;;;;;;;;6048908;23;19972;-90
2021/10/31 05:44:45;;;;;;;;;;;;;;;;;;6045226;23;19932;-91
2021/10/31 05:47:15;;;;;;;;;;;;;;;;;;6073488;23;19921;-91
2021/10/31 05:49:43;;;;;;;;;;;;;;;;;;6068137;23;19921;-91
2021/10/31 05:52:11;;;;;;;;;;;;;;;;;;6041337;23;19930;-90
2021/10/31 05:54:40;;;;;;;;;;;;;;;;;;6065193;23;19922;-88
2021/10/31 05:57:08;;;;;;;;;;;;;;;;;;6065370;23;20068;-89
2021/10/31 05:59:36;;;;;;;;;;;;;;;;;;6064478;23;20259;-88
2021/10/31 06:02:08;;;;;;;;;;;;;;;;;;6067581;23;19929;-90
2021/10/31 06:04:39;;;;;;;;;;;;;;;;;;6062254;23;20413;-89
2021/10/31 06:07:08;;;;;;;;;;;;;;;;;;6073655;23;19921;-90
2021/10/31 06:09:36;;;;;;;;;;;;;;;;;;6039742;23;19937;-91
2021/10/31 06:12:04;;;;;;;;;;;;;;;;;;6041054;23;19928;-91
2021/10/31 06:14:33;;;;;;;;;;;;;;;;;;6065206;23;19929;-91
2021/10/31 06:17:01;;;;;;;;;;;;;;;;;;6063632;23;20584;-90
2021/10/31 06:19:30;;;;;;;;;;;;;;;;;;6064759;23;19929;-91
2021/10/31 06:22:00;;;;;;;;;;;;;;;;;;6065867;23;20339;-91
2021/10/31 06:24:28;;;;;;;;;;;;;;;;;;6089544;23;19922;-91
2021/10/31 06:26:57;;;;;;;;;;;;;;;;;;6089082;23;19929;-91
2021/10/31 06:29:25;;;;;;;;;;;;;;;;;;6065101;23;19928;-92
2021/10/31 06:31:53;;;;;;;;;;;;;;;;;;6042266;23;19984;-91
2021/10/31 06:34:21;;;;;;;;;;;;;;;;;;6045334;23;19928;-92
2021/10/31 06:36:50;;;;;;;;;;;;;;;;;;6072127;23;19922;-91
2021/10/31 06:39:20;;;;;;;;;;;;;;;;;;6072231;23;19926;-90
2021/10/31 06:41:48;;;;;;;;;;;;;;;;;;6066104;23;19960;-90
2021/10/31 06:44:16;;;;;;;;;;;;;;;;;;6064009;23;20347;-89
2021/10/31 06:46:45;;;;;;;;;;;;;;;;;;6064718;23;19933;-91
2021/10/31 06:49:13;;;;;;;;;;;;;;;;;;6061902;23;19930;-91
2021/10/31 06:51:41;;;;;;;;;;;;;;;;;;6063666;23;20255;-90
2021/10/31 06:54:10;;;;;;;;;;;;;;;;;;6064760;23;19944;-89
2021/10/31 06:56:40;;;;;;;;;;;;;;;;;;6038961;23;19948;-89
2021/10/31 06:59:08;;;;;;;;;;;;;;;;;;6039900;23;19925;-91
2021/10/31 07:01:37;;;;;;;;;;;;;;;;;;6063870;23;19922;-90
2021/10/31 07:04:07;;;;;;;;;;;;;;;;;;6062094;23;19930;-92
2021/10/31 07:06:35;;;;;;;;;;;;;;;;;;6062299;23;19933;-91
2021/10/31 07:09:04;;;;;;;;;;;;;;;;;;6061261;23;19989;-89
2021/10/31 07:11:32;;;;;;;;;;;;;;;;;;6050855;23;19921;-90
2021/10/31 07:14:02;;;;;;;;;;;;;;;;;;6036986;23;19929;-90
2021/10/31 07:16:31;;;;;;;;;;;;;;;;;;6034279;23;20012;-91
2021/10/31 07:19:00;;;;;;;;;;;;;;;;;;6037319;23;19929;-90
2021/10/31 07:21:28;;;;;;;;;;;;;;;;;;6037901;23;19933;-91
2021/10/31 07:23:56;;;;;;;;;;;;;;;;;;6086095;23;19922;-89
2021/10/31 07:26:25;;;;;;;;;;;;;;;;;;6082342;23;20227;-91
2021/10/31 07:28:53;;;;;;;;;;;;;;;;;;6057436;23;19949;-91
2021/10/31 07:31:26;;;;;;;;;;;;;;;;;;6060817;23;19932;-91
2021/10/31 07:33:55;;;;;;;;;;;;;;;;;;6058610;23;20366;-91
2021/10/31 07:36:23;;;;;;;;;;;;;;;;;;6083788;23;19926;-91
2021/10/31 07:38:51;;;;;;;;;;;;;;;;;;6059548;23;19948;-91
2021/10/31 07:41:20;;;;;;;;;;;;;;;;;;6060364;23;19929;-89
2021/10/31 07:43:48;;;;;;;;;;;;;;;;;;6060651;23;19925;-89
2021/10/31 07:46:16;;;;;;;;;;;;;;;;;;6062308;23;19929;-92
2021/10/31 07:48:46;;;;;;;;;;;;;;;;;;6033841;23;19926;-92
2021/10/31 07:51:14;;;;;;;;;;;;;;;;;;6058003;23;19929;-92
2021/10/31 07:53:43;;;;;;;;;;;;;;;;;;6037188;23;19921;-91
2021/10/31 07:56:13;;;;;;;;;;;;;;;;;;6060678;23;20274;-92
2021/10/31 07:58:43;;;;;;;;;;;;;;;;;;6076817;23;19906;-89
2021/10/31 08:01:11;;;;;;;;;;;;;;;;;;6083449;23;19932;-90
2021/10/31 08:03:40;;;;;;;;;;;;;;;;;;6060751;23;20152;-90
2021/10/31 08:06:12;;;;;;;;;;;;;;;;;;6037097;23;19921;-89
2021/10/31 08:08:40;;;;;;;;;;;;;;;;;;6059795;23;19921;-89
2021/10/31 08:11:09;;;;;;;;;;;;;;;;;;6059792;23;19926;-86
2021/10/31 08:13:38;;;;;;;;;;;;;;;;;;6039657;23;19925;-90
2021/10/31 08:16:07;;;;;;;;;;;;;;;;;;6046892;23;19936;-89
2021/10/31 08:18:36;;;;;;;;;;;;;;;;;;6038802;23;20369;-89
2021/10/31 08:21:06;;;;;;;;;;;;;;;;;;6034256;23;19926;-89
2021/10/31 08:23:37;;;;;;;;;;;;;;;;;;6036177;23;19921;-88
2021/10/31 08:26:05;;;;;;;;;;;;;;;;;;6035400;23;19922;-89
2021/10/31 08:28:36;;;;;;;;;;;;;;;;;;6061293;23;19987;-88
2021/10/31 08:31:05;;;;;;;;;;;;;;;;;;6033071;23;19926;-88
2021/10/31 08:33:42;;;;;;;;;;;;;;;;;;6070349;23;19922;-90
2021/10/31 08:36:12;;;;;;;;;;;;;;;;;;6031737;23;19929;-89
2021/10/31 08:38:45;;;;;;;;;;;;;;;;;;6031771;23;19922;-88
2021/10/31 08:41:13;;;;;;;;;;;;;;;;;;6035657;23;19925;-89
2021/10/31 08:43:42;;;;;;;;;;;;;;;;;;6040805;23;19922;-89
2021/10/31 08:46:10;;;;;;;;;;;;;;;;;;6062704;23;19925;-89
2021/10/31 08:48:39;;;;;;;;;;;;;;;;;;6063237;23;19930;-89
2021/10/31 08:51:07;;;;;;;;;;;;;;;;;;6038104;23;19929;-90
2021/10/31 08:53:36;;;;;;;;;;;;;;;;;;6040293;23;20267;-89
2021/10/31 08:56:06;;;;;;;;;;;;;;;;;;6036301;23;20355;-89
2021/10/31 08:58:34;;;;;;;;;;;;;;;;;;6034070;23;19921;-89
2021/10/31 09:01:03;;;;;;;;;;;;;;;;;;6036815;23;20398;-89
2021/10/31 09:03:32;;;;;;;;;;;;;;;;;;6039284;23;20362;-90
2021/10/31 09:06:00;;;;;;;;;;;;;;;;;;6062213;23;19933;-89
2021/10/31 09:08:28;;;;;;;;;;;;;;;;;;6032009;23;19922;-88
2021/10/31 09:10:56;;;;;;;;;;;;;;;;;;6036753;23;19926;-89
2021/10/31 09:13:27;;;;;;;;;;;;;;;;;;6058997;23;19921;-89
2021/10/31 09:15:55;;;;;;;;;;;;;;;;;;6059548;23;19922;-88
2021/10/31 09:18:24;;;;;;;;;;;;;;;;;;6034417;23;19933;-89
2021/10/31 09:20:53;;;;;;;;;;;;;;;;;;6032932;23;19929;-88
2021/10/31 09:23:21;;;;;;;;;;;;;;;;;;6034856;23;20287;-89
2021/10/31 09:25:50;;;;;;;;;;;;;;;;;;6035034;23;19928;-89
2021/10/31 09:28:18;;;;;;;;;;;;;;;;;;6057159;23;20255;-88
2021/10/31 09:30:47;;;;;;;;;;;;;;;;;;6036155;23;20251;-90
2021/10/31 09:33:15;;;;;;;;;;;;;;;;;;6039048;23;19930;-89
2021/10/31 09:35:46;;;;;;;;;;;;;;;;;;6037603;23;19947;-89
2021/10/31 09:38:16;;;;;;;;;;;;;;;;;;6034669;23;19922;-89
2021/10/31 09:40:44;;;;;;;;;;;;;;;;;;6035770;23;19925;-89
2021/10/31 09:43:13;;;;;;;;;;;;;;;;;;6062142;23;20361;-90
2021/10/31 09:45:44;;;;;;;;;;;;;;;;;;6034666;23;20118;-90
2021/10/31 09:48:16;;;;;;;;;;;;;;;;;;6068472;23;19935;-90
2021/10/31 09:50:45;;;;;;;;;;;;;;;;;;6037455;23;20358;-89
2021/10/31 09:53:18;;;;;;;;;;;;;;;;;;6048659;23;19922;-89
2021/10/31 09:55:47;;;;;;;;;;;;;;;;;;6078968;23;19975;-89
2021/10/31 09:58:21;;;;;;;;;;;;;;;;;;6044481;23;19926;-86
2021/10/31 10:00:50;;;;;;;;;;;;;;;;;;6034888;23;19925;-89
2021/10/31 10:03:35;;;;;;;;;;;;;;;;;;6036984;23;19925;-88
2021/10/31 10:06:10;;;;;;;;;;;;;;;;;;6036858;23;19922;-89
2021/10/31 10:08:38;;;;;;;;;;;;;;;;;;6034380;23;20262;-89
2021/10/31 10:11:16;;;;;;;;;;;;;;;;;;6034558;23;19936;-89
2021/10/31 10:13:45;;;;;;;;;;;;;;;;;;6035165;23;20645;-88
2021/10/31 10:16:14;;;;;;;;;;;;;;;;;;6033901;23;19928;-89
2021/10/31 10:18:44;;;;;;;;;;;;;;;;;;6034978;23;19929;-87
2021/10/31 10:21:17;;;;;;;;;;;;;;;;;;6063155;23;19954;-87
2021/10/31 10:23:46;;;;;;;;;;;;;;;;;;6061349;23;19977;-89
2021/10/31 10:26:14;;;;;;;;;;;;;;;;;;6083114;23;19921;-88
2021/10/31 10:28:42;;;;;;;;;;;;;;;;;;6034452;23;19921;-88
2021/10/31 10:31:21;;;;;;;;;;;;;;;;;;6032302;23;19925;-88
2021/10/31 10:33:51;;;;;;;;;;;;;;;;;;6032877;23;20351;-87
2021/10/31 10:36:20;;;;;;;;;;;;;;;;;;6034127;23;20334;-88
2021/10/31 10:38:59;;;;;;;;;;;;;;;;;;6034800;23;20254;-88
2021/10/31 10:41:37;;;;;;;;;;;;;;;;;;6069088;23;19926;-87
2021/10/31 10:44:22;;;;;;;;;;;;;;;;;;6033055;23;19926;-86
2021/10/31 10:46:51;;;;;;;;;;;;;;;;;;6031660;23;19925;-87
2021/10/31 10:49:21;;;;;;;;;;;;;;;;;;6031383;23;19925;-86
2021/10/31 10:52:04;;;;;;;;;;;;;;;;;;6033369;23;19928;-85
2021/10/31 10:54:32;;;;;;;;;;;;;;;;;;6052920;23;19933;-85
2021/10/31 10:57:01;;;;;;;;;;;;;;;;;;6037751;23;20017;-86
2021/10/31 10:59:29;;;;;;;;;;;;;;;;;;6039430;23;19937;-84
2021/10/31 11:02:16;;;;;;;;;;;;;;;;;;6040980;23;19937;-84
2021/10/31 11:04:46;;;;;;;;;;;;;;;;;;6041513;23;20282;-83
2021/10/31 11:07:15;;;;;;;;;;;;;;;;;;6076448;23;19929;-83
2021/10/31 11:09:44;;;;;;;;;;;;;;;;;;6041511;23;19928;-84
2021/10/31 11:12:22;;;;;;;;;;;;;;;;;;6063764;23;19932;-84
2021/10/31 11:14:50;;;;;;;;;;;;;;;;;;6066978;23;19922;-82
2021/10/31 11:17:19;;;;;;;;;;;;;;;;;;6043258;23;19936;-83
2021/10/31 11:19:49;;;;;;;;;;;;;;;;;;6046850;23;19930;-83
2021/10/31 11:22:17;;;;;;;;;;;;;;;;;;6082710;23;19909;-82
2021/10/31 11:24:46;;;;;;;;;;;;;;;;;;6055926;23;19910;-82
2021/10/31 11:27:16;;;;;;;;;;;;;;;;;;6083431;23;19910;-83
2021/10/31 11:29:44;;;;;;;;;;;;;;;;;;6046281;23;19936;-84
2021/10/31 11:32:13;;;;;;;;;;;;;;;;;;6067742;23;20126;-83
2021/10/31 11:34:42;;;;;;;;;;;;;;;;;;6044709;23;19937;-85
2021/10/31 11:37:11;;;;;;;;;;;;;;;;;;6083041;23;19916;-82
2021/10/31 11:39:40;;;;;;;;;;;;;;;;;;6087219;23;19949;-82
2021/10/31 11:42:08;;;;;;;;;;;;;;;;;;6069747;23;19932;-84
2021/10/31 11:44:51;;;;;;;;;;;;;;;;;;6042661;23;19921;-83
2021/10/31 11:47:20;;;;;;;;;;;;;;;;;;6042743;23;19928;-83
2021/10/31 11:49:59;;;;;;;;;;;;;;;;;;6064791;23;20355;-85
2021/10/31 11:52:45;;;;;;;;;;;;;;;;;;6041586;23;19925;-84
2021/10/31 11:55:33;;;;;;;;;;;;;;;;;;6046263;23;19928;-83
2021/10/31 11:58:10;;;;;;;;;;;;;;;;;;6044938;23;19927;-83
2021/10/31 12:00:48;;;;;;;;;;;;;;;;;;6066728;23;20258;-84
2021/10/31 12:03:41;;;;;;;;;;;;;;;;;;6079767;23;19921;-84
2021/10/31 12:06:28;;;;;;;;;;;;;;;;;;6046701;23;20381;-84
2021/10/31 12:08:59;;;;;;;;;;;;;;;;;;6046724;23;19922;-84
2021/10/31 12:11:42;;;;;;;;;;;;;;;;;;6070811;23;19925;-84
2021/10/31 12:14:11;;;;;;;;;;;;;;;;;;6070728;23;19921;-84
2021/10/31 12:16:50;;;;;;;;;;;;;;;;;;6046533;23;20282;-84
2021/10/31 12:19:20;;;;;;;;;;;;;;;;;;6040725;23;19926;-84
2021/10/31 12:21:48;;;;;;;;;;;;;;;;;;6042014;23;19948;-84
2021/10/31 12:24:19;;;;;;;;;;;;;;;;;;6043642;23;19929;-83
2021/10/31 12:26:49;;;;;;;;;;;;;;;;;;6040920;23;20167;-84
2021/10/31 12:29:18;;;;;;;;;;;;;;;;;;6064594;23;19921;-85
2021/10/31 12:31:52;;;;;;;;;;;;;;;;;;6040020;23;19944;-86
2021/10/31 12:34:21;;;;;;;;;;;;;;;;;;6038495;23;20361;-86
2021/10/31 12:36:51;;;;;;;;;;;;;;;;;;6067925;23;19936;-83
2021/10/31 12:39:38;;;;;;;;;;;;;;;;;;6041502;23;19948;-83
2021/10/31 12:42:11;;;;;;;;;;;;;;;;;;6042166;23;19929;-83
2021/10/31 12:44:42;;;;;;;;;;;;;;;;;;6063705;23;19947;-83
2021/10/31 12:47:13;;;;;;;;;;;;;;;;;;6061796;23;19921;-82
2021/10/31 12:49:41;;;;;;;;;;;;;;;;;;6045693;23;19932;-83
2021/10/31 12:52:28;;;;;;;;;;;;;;;;;;6044907;23;20337;-84
2021/10/31 12:54:57;;;;;;;;;;;;;;;;;;6075597;23;19936;-84
2021/10/31 12:57:27;;;;;;;;;;;;;;;;;;6069414;23;19921;-84
2021/10/31 13:00:00;;;;;;;;;;;;;;;;;;6042800;23;19925;-84
2021/10/31 13:02:29;;;;;;;;;;;;;;;;;;6047120;23;19928;-84
2021/10/31 13:04:58;;;;;;;;;;;;;;;;;;6051346;23;19921;-85
2021/10/31 13:07:40;;;;;;;;;;;;;;;;;;6048962;23;19926;-83
2021/10/31 13:10:11;;;;;;;;;;;;;;;;;;6054373;23;19909;-83
2021/10/31 13:12:40;;;;;;;;;;;;;;;;;;6063663;23;19921;-83
2021/10/31 13:15:10;;;;;;;;;;;;;;;;;;6066739;23;19916;-82
2021/10/31 13:17:40;;;;;;;;;;;;;;;;;;6066634;23;19949;-82
2021/10/31 13:20:09;;;;;;;;;;;;;;;;;;6065411;23;19916;-83
2021/10/31 13:22:38;;;;;;;;;;;;;;;;;;6066746;23;19965;-82
2021/10/31 13:25:08;;;;;;;;;;;;;;;;;;6048929;23;20611;-83
2021/10/31 13:27:40;;;;;;;;;;;;;;;;;;6071312;23;20331;-84
2021/10/31 13:30:12;;;;;;;;;;;;;;;;;;6069854;23;19921;-83
2021/10/31 13:32:41;;;;;;;;;;;;;;;;;;6052961;23;19925;-83
2021/10/31 13:35:09;;;;;;;;;;;;;;;;;;6076543;23;20415;-83
2021/10/31 13:37:37;;;;;;;;;;;;;;;;;;6076339;23;20339;-82
2021/10/31 13:40:07;;;;;;;;;;;;;;;;;;6084316;23;19926;-83
2021/10/31 13:42:37;;;;;;;;;;;;;;;;;;6055219;23;19909;-83
2021/10/31 13:45:08;;;;;;;;;;;;;;;;;;6060307;23;19922;-84
2021/10/31 13:47:40;;;;;;;;;;;;;;;;;;6044244;23;19932;-85
2021/10/31 13:50:10;;;;;;;;;;;;;;;;;;6061629;23;19925;-84
2021/10/31 13:52:40;;;;;;;;;;;;;;;;;;6039686;23;19933;-86
2021/10/31 13:55:10;;;;;;;;;;;;;;;;;;6061713;23;19926;-86
2021/10/31 13:57:38;;;;;;;;;;;;;;;;;;6061057;23;20351;-85
2021/10/31 14:00:11;;;;;;;;;;;;;;;;;;6034514;23;19926;-85
2021/10/31 14:02:41;;;;;;;;;;;;;;;;;;6039065;23;19972;-85
2021/10/31 14:05:10;;;;;;;;;;;;;;;;;;6033655;23;19922;-86
2021/10/31 14:07:39;;;;;;;;;;;;;;;;;;6033531;23;19926;-85
2021/10/31 14:10:08;;;;;;;;;;;;;;;;;;6057497;23;19929;-85
2021/10/31 14:12:36;;;;;;;;;;;;;;;;;;6033163;23;20339;-84
2021/10/31 14:15:06;;;;;;;;;;;;;;;;;;6061845;23;20374;-88
2021/10/31 14:17:35;;;;;;;;;;;;;;;;;;6034073;23;20272;-85
2021/10/31 14:20:05;;;;;;;;;;;;;;;;;;6033251;23;20264;-85
2021/10/31 14:22:43;;;;;;;;;;;;;;;;;;6060869;23;19929;-86
2021/10/31 14:25:12;;;;;;;;;;;;;;;;;;6036907;23;20266;-87
2021/10/31 14:27:43;;;;;;;;;;;;;;;;;;6035231;23;20147;-88
2021/10/31 14:30:12;;;;;;;;;;;;;;;;;;6033036;23;19925;-87
2021/10/31 14:32:44;;;;;;;;;;;;;;;;;;6051267;23;19928;-85
2021/10/31 14:35:14;;;;;;;;;;;;;;;;;;6087398;23;19920;-88
2021/10/31 14:37:57;;;;;;;;;;;;;;;;;;6047946;23;19922;-87
2021/10/31 14:40:25;;;;;;;;;;;;;;;;;;6077794;23;19910;-85
2021/10/31 14:43:08;;;;;;;;;;;;;;;;;;6059780;23;19931;-85
2021/10/31 14:45:37;;;;;;;;;;;;;;;;;;6043802;23;19925;-86
2021/10/31 14:48:19;;;;;;;;;;;;;;;;;;6035716;23;19930;-87
2021/10/31 14:50:49;;;;;;;;;;;;;;;;;;6037123;23;19921;-87
2021/10/31 14:53:18;;;;;;;;;;;;;;;;;;6039787;23;19929;-86
2021/10/31 14:55:47;;;;;;;;;;;;;;;;;;6038254;23;20258;-88
2021/10/31 14:58:16;;;;;;;;;;;;;;;;;;6038666;23;19922;-88
2021/10/31 15:00:48;;;;;;;;;;;;;;;;;;6038879;23;19933;-87
2021/10/31 15:03:29;;;;;;;;;;;;;;;;;;6072860;23;20347;-89
2021/10/31 15:05:59;;;;;;;;;;;;;;;;;;6064172;23;19929;-88
2021/10/31 15:08:28;;;;;;;;;;;;;;;;;;6058660;23;19920;-91
2021/10/31 15:10:56;;;;;;;;;;;;;;;;;;6067558;23;19920;-92
2021/10/31 15:13:24;;;;;;;;;;;;;;;;;;6044431;23;19921;-88
2021/10/31 15:15:52;;;;;;;;;;;;;;;;;;6039570;23;19933;-87
2021/10/31 15:18:21;;;;;;;;;;;;;;;;;;6040501;23;20372;-85
2021/10/31 15:20:57;;;;;;;;;;;;;;;;;;6065889;23;19944;-85
2021/10/31 15:23:28;;;;;;;;;;;;;;;;;;6042342;23;19921;-88
2021/10/31 15:25:56;;;;;;;;;;;;;;;;;;6065852;23;20138;-85
2021/10/31 15:28:30;;;;;;;;;;;;;;;;;;6041137;23;19925;-87
2021/10/31 15:30:58;;;;;;;;;;;;;;;;;;6041564;23;19925;-84
2021/10/31 15:33:30;;;;;;;;;;;;;;;;;;6042424;23;19932;-87
2021/10/31 15:35:59;;;;;;;;;;;;;;;;;;6042701;23;20365;-88
2021/10/31 15:38:29;;;;;;;;;;;;;;;;;;6065550;23;19922;-85
2021/10/31 15:40:57;;;;;;;;;;;;;;;;;;6042061;23;20339;-88
2021/10/31 15:43:26;;;;;;;;;;;;;;;;;;6042275;23;19926;-88
2021/10/31 15:45:55;;;;;;;;;;;;;;;;;;6064261;23;19921;-87
2021/10/31 15:48:23;;;;;;;;;;;;;;;;;;6066344;23;20353;-88
2021/10/31 15:50:52;;;;;;;;;;;;;;;;;;6040086;23;19932;-87
2021/10/31 15:53:21;;;;;;;;;;;;;;;;;;6066933;23;19921;-89
2021/10/31 15:55:50;;;;;;;;;;;;;;;;;;6042882;23;20243;-88
2021/10/31 15:58:20;;;;;;;;;;;;;;;;;;6068425;23;19922;-87
2021/10/31 16:00:48;;;;;;;;;;;;;;;;;;6069066;23;19926;-86
2021/10/31 16:03:17;;;;;;;;;;;;;;;;;;6069757;23;19944;-86
2021/10/31 16:05:45;;;;;;;;;;;;;;;;;;6042669;23;19921;-83
2021/10/31 16:08:13;;;;;;;;;;;;;;;;;;6042101;23;20394;-86
2021/10/31 16:10:46;;;;;;;;;;;;;;;;;;6041972;23;20143;-85
2021/10/31 16:13:16;;;;;;;;;;;;;;;;;;6042267;23;19921;-86
2021/10/31 16:15:44;;;;;;;;;;;;;;;;;;6042286;23;20271;-88
2021/10/31 16:18:14;;;;;;;;;;;;;;;;;;6066262;23;19921;-85
2021/10/31 16:20:43;;;;;;;;;;;;;;;;;;6043590;23;19921;-88
2021/10/31 16:23:11;;;;;;;;;;;;;;;;;;6043365;23;19921;-87
2021/10/31 16:25:39;;;;;;;;;;;;;;;;;;6042676;23;19922;-89
2021/10/31 16:28:10;;;;;;;;;;;;;;;;;;6042903;23;19944;-89
2021/10/31 16:30:41;;;;;;;;;;;;;;;;;;6042648;23;19926;-89
2021/10/31 16:33:09;;;;;;;;;;;;;;;;;;6066659;23;20357;-87
2021/10/31 16:35:38;;;;;;;;;;;;;;;;;;6042682;23;19925;-89
2021/10/31 16:38:06;;;;;;;;;;;;;;;;;;6042467;23;20101;-88
2021/10/31 16:40:35;;;;;;;;;;;;;;;;;;6072910;23;20347;-88
2021/10/31 16:43:13;;;;;;;;;;;;;;;;;;6052652;23;19922;-91
2021/10/31 16:45:43;;;;;;;;;;;;;;;;;;6052874;23;19928;-89
2021/10/31 16:48:12;;;;;;;;;;;;;;;;;;6057805;23;19936;-91
2021/10/31 16:50:41;;;;;;;;;;;;;;;;;;6076437;23;19925;-89
2021/10/31 16:53:09;;;;;;;;;;;;;;;;;;6074353;23;19938;-91
2021/10/31 16:55:38;;;;;;;;;;;;;;;;;;6053299;23;19971;-89
2021/10/31 16:58:06;;;;;;;;;;;;;;;;;;6071035;23;19967;-87
2021/10/31 17:00:35;;;;;;;;;;;;;;;;;;6042295;23;19928;-88
2021/10/31 17:03:05;;;;;;;;;;;;;;;;;;6065765;23;20270;-89
2021/10/31 17:05:34;;;;;;;;;;;;;;;;;;6042455;23;19929;-89